Time,TemperatureF,DewpointF,PressureIn,WindDirection,WindDirectionDegrees,WindSpeedMPH,WindSpeedGustMPH,Humidity,HourlyPrecipIn,Conditions,Clouds,dailyrainin,SoftwareType,DateUTC
2013-11-10 00:00:00,35.0,-99.9,-100.00,SSW,193,1.0,4.0,-999,-99.99,,,-99.99,,2013-11-10 07:00:00,
2013-11-10 00:52:00,35.0,-99.9,-100.00,SSW,193,1.0,4.0,-999,-99.99,,,-99.99,,2013-11-10 07:52:00,
2013-11-10 01:00:00,33.0,-99.9,-100.00,ESE,102,5.0,5.0,-999,-99.99,,,-99.99,,2013-11-10 08:00:00,
2013-11-10 01:53:00,33.0,-99.9,-100.00,ESE,102,5.0,5.0,-999,-99.99,,,-99.99,,2013-11-10 08:53:00,
2013-11-10 02:00:00,33.0,-99.9,-100.00,East,86,5.0,6.0,-999,-99.99,,,-99.99,,2013-11-10 09:00:00,
2013-11-10 02:53:00,33.0,-99.9,-100.00,East,86,5.0,6.0,-999,-99.99,,,-99.99,,2013-11-10 09:53:00,
2013-11-10 03:00:00,33.0,-99.9,-100.00,East,85,5.0,6.0,-999,-99.99,,,-99.99,,2013-11-10 10:00:00,
2013-11-10 03:53:00,33.0,-99.9,-100.00,East,85,5.0,6.0,-999,-99.99,,,-99.99,,2013-11-10 10:53:00,
2013-11-10 04:00:00,33.0,-99.9,-100.00,SE,136,5.0,6.0,-999,-99.99,,,-99.99,,2013-11-10 11:00:00,
2013-11-10 04:52:00,33.0,-99.9,-100.00,SE,136,5.0,6.0,-999,-99.99,,,-99.99,,2013-11-10 11:52:00,
2013-11-10 05:00:00,37.0,-99.9,-100.00,SW,223,12.0,21.0,-999,-99.99,,,-99.99,,2013-11-10 12:00:00,
2013-11-10 05:52:00,37.0,-99.9,-100.00,SW,223,12.0,21.0,-999,-99.99,,,-99.99,,2013-11-10 12:52:00,
2013-11-10 07:00:00,37.0,-99.9,-100.00,SSW,209,11.0,15.0,-999,-99.99,,,-99.99,,2013-11-10 14:00:00,
2013-11-10 07:52:00,37.0,-99.9,-100.00,SSW,209,11.0,15.0,-999,-99.99,,,-99.99,,2013-11-10 14:52:00,
2013-11-10 08:00:00,41.0,-99.9,-100.00,WSW,258,6.0,11.0,-999,-99.99,,,-99.99,,2013-11-10 15:00:00,
2013-11-10 08:54:00,41.0,-99.9,-100.00,WSW,258,6.0,11.0,-999,-99.99,,,-99.99,,2013-11-10 15:54:00,
2013-11-10 09:00:00,44.0,-99.9,-100.00,WSW,250,8.0,10.0,-999,-99.99,,,-99.99,,2013-11-10 16:00:00,
2013-11-10 09:53:00,44.0,-99.9,-100.00,WSW,250,8.0,10.0,-999,-99.99,,,-99.99,,2013-11-10 16:53:00,
2013-11-10 10:53:00,46.0,-99.9,-100.00,SW,235,8.0,11.0,-999,-99.99,,,-99.99,,2013-11-10 17:53:00,
2013-11-10 11:00:00,51.0,-99.9,-100.00,SW,235,11.0,15.0,-999,-99.99,,,-99.99,,2013-11-10 18:00:00,
2013-11-10 11:03:00,46.0,-99.9,-100.00,SW,235,8.0,11.0,-999,-99.99,,,-99.99,,2013-11-10 18:03:00,
2013-11-10 11:52:00,51.0,-99.9,-100.00,SW,235,11.0,15.0,-999,-99.99,,,-99.99,,2013-11-10 18:52:00,
2013-11-10 12:00:00,57.0,-99.9,-100.00,West,273,6.0,10.0,-999,-99.99,,,-99.99,,2013-11-10 19:00:00,
2013-11-10 12:52:00,57.0,-99.9,-100.00,West,273,6.0,10.0,-999,-99.99,,,-99.99,,2013-11-10 19:52:00,
2013-11-10 13:00:00,62.0,-99.9,-100.00,WNW,282,6.0,11.0,-999,-99.99,,,-99.99,,2013-11-10 20:00:00,
2013-11-10 13:53:00,62.0,-99.9,-100.00,WNW,282,6.0,11.0,-999,-99.99,,,-99.99,,2013-11-10 20:53:00,
2013-11-10 14:00:00,64.0,-99.9,-100.00,West,280,5.0,8.0,-999,-99.99,,,-99.99,,2013-11-10 21:00:00,
2013-11-10 14:55:00,64.0,-99.9,-100.00,West,280,5.0,8.0,-999,-99.99,,,-99.99,,2013-11-10 21:55:00,
2013-11-10 15:00:00,66.0,-99.9,-100.00,West,270,7.0,10.0,-999,-99.99,,,-99.99,,2013-11-10 22:00:00,
2013-11-10 15:54:00,66.0,-99.9,-100.00,West,270,7.0,10.0,-999,-99.99,,,-99.99,,2013-11-10 22:54:00,
2013-11-10 16:00:00,68.0,-99.9,-100.00,SW,223,2.0,3.0,-999,-99.99,,,-99.99,,2013-11-10 23:00:00,
2013-11-10 16:53:00,68.0,-99.9,-100.00,SW,223,2.0,3.0,-999,-99.99,,,-99.99,,2013-11-10 23:53:00,
2013-11-10 17:00:00,60.0,-99.9,-100.00,NE,40,3.0,3.0,-999,-99.99,,,-99.99,,2013-11-11 00:00:00,
2013-11-10 17:52:00,60.0,-99.9,-100.00,NE,40,3.0,3.0,-999,-99.99,,,-99.99,,2013-11-11 00:52:00,
2013-11-10 18:52:00,51.0,-99.9,-100.00,NW,304,4.0,5.0,-999,-99.99,,,-99.99,,2013-11-11 01:52:00,
2013-11-10 19:00:00,48.0,-99.9,-100.00,ENE,57,1.0,3.0,-999,-99.99,,,-99.99,,2013-11-11 02:00:00,
2013-11-10 19:02:00,51.0,-99.9,-100.00,NW,304,4.0,5.0,-999,-99.99,,,-99.99,,2013-11-11 02:02:00,
2013-11-10 19:52:00,48.0,-99.9,-100.00,ENE,57,1.0,3.0,-999,-99.99,,,-99.99,,2013-11-11 02:52:00,
2013-11-10 20:00:00,44.0,-99.9,-100.00,WNW,282,3.0,5.0,-999,-99.99,,,-99.99,,2013-11-11 03:00:00,
2013-11-10 20:55:00,44.0,-99.9,-100.00,WNW,282,3.0,5.0,-999,-99.99,,,-99.99,,2013-11-11 03:55:00,
2013-11-10 21:00:00,42.0,-99.9,-100.00,SSE,149,1.0,13.0,-999,-99.99,,,-99.99,,2013-11-11 04:00:00,
2013-11-10 21:53:00,42.0,-99.9,-100.00,SSE,149,1.0,13.0,-999,-99.99,,,-99.99,,2013-11-11 04:53:00,
2013-11-10 22:00:00,41.0,-99.9,-100.00,SSE,152,0.0,3.0,-999,-99.99,,,-99.99,,2013-11-11 05:00:00,
2013-11-10 22:54:00,41.0,-99.9,-100.00,SSE,152,0.0,3.0,-999,-99.99,,,-99.99,,2013-11-11 05:54:00,
2013-11-10 23:00:00,37.0,-99.9,-100.00,WNW,288,6.0,6.0,-999,-99.99,,,-99.99,,2013-11-11 06:00:00,
2013-11-10 23:52:00,37.0,-99.9,-100.00,WNW,288,6.0,6.0,-999,-99.99,,,-99.99,,2013-11-11 06:52:00,